createdAt,value
2022-08-19T00:02:00.476Z,28.48
2022-08-19T00:04:31.453Z,32.97
2022-08-19T00:07:01.261Z,25.35
2022-08-19T00:09:30.910Z,32.85
2022-08-19T00:12:00.607Z,28.88
2022-08-19T00:14:32.856Z,28.60
2022-08-19T00:17:02.674Z,25.90
2022-08-19T00:19:32.430Z,30.50
2022-08-19T00:22:02.294Z,30.45
2022-08-19T00:24:31.948Z,27.83
2022-08-19T00:27:26.382Z,28.08
2022-08-19T00:29:52.585Z,31.65
2022-08-19T00:32:23.110Z,30.63
2022-08-19T00:34:55.040Z,30.88
2022-08-19T00:37:25.416Z,31.48
2022-08-19T00:39:55.120Z,28.85
2022-08-19T00:42:24.982Z,27.85
2022-08-19T00:44:54.659Z,25.15
2022-08-19T00:47:24.301Z,25.38
2022-08-19T00:49:56.322Z,26.20
2022-08-19T00:52:31.393Z,24.60
2022-08-19T00:55:01.211Z,22.20
2022-08-19T00:57:34.693Z,24.58
2022-08-19T01:00:04.705Z,28.30
2022-08-19T01:02:34.484Z,28.42
2022-08-19T01:05:08.548Z,26.35
2022-08-19T01:07:38.547Z,24.67
2022-08-19T01:10:12.480Z,21.73
2022-08-19T01:12:42.245Z,24.10
2022-08-19T01:15:12.580Z,21.40
2022-08-19T01:17:42.525Z,25.85
2022-08-19T01:20:16.879Z,26.63
2022-08-19T01:22:48.053Z,22.25
2022-08-19T01:25:18.555Z,18.90
2022-08-19T01:27:53.623Z,18.42
2022-08-19T01:30:24.761Z,20.23
2022-08-19T01:32:54.887Z,20.90
2022-08-19T01:35:25.917Z,18.27
2022-08-19T01:37:59.232Z,17.27
2022-08-19T01:40:31.499Z,17.17
2022-08-19T01:43:01.135Z,18.17
2022-08-19T01:45:31.007Z,14.23
2022-08-19T01:48:02.378Z,17.33
2022-08-19T01:50:33.178Z,17.15
2022-08-19T01:53:06.166Z,19.70
2022-08-19T01:55:41.075Z,12.63
2022-08-19T01:58:21.129Z,15.68
2022-08-19T02:00:50.746Z,13.85
2022-08-19T02:03:20.281Z,16.30
2022-08-19T02:05:49.835Z,15.88
2022-08-19T02:08:19.521Z,18.65
2022-08-19T02:10:49.002Z,15.95
2022-08-19T02:13:21.074Z,20.15
2022-08-19T02:15:55.907Z,19.52
2022-08-19T02:18:28.055Z,17.15
2022-08-19T02:20:57.970Z,21.08
2022-08-19T02:23:27.635Z,18.75
2022-08-19T02:25:57.206Z,16.17
2022-08-19T02:28:26.708Z,17.83
2022-08-19T02:30:56.369Z,19.27
2022-08-19T02:33:26.051Z,14.43
2022-08-19T02:35:55.751Z,16.38
2022-08-19T02:38:28.517Z,17.40
2022-08-19T02:41:02.801Z,17.65
2022-08-19T02:43:34.557Z,17.00
2022-08-19T02:46:04.682Z,18.92
2022-08-19T02:48:35.133Z,14.93
2022-08-19T02:51:04.884Z,19.27
2022-08-19T02:53:34.676Z,19.35
2022-08-19T02:56:05.359Z,20.73
2022-08-19T02:58:34.997Z,18.08
2022-08-19T03:01:05.100Z,18.75
2022-08-19T03:03:34.798Z,20.63
2022-08-19T03:06:11.184Z,17.83
2022-08-19T03:08:42.102Z,22.45
2022-08-19T03:11:31.876Z,20.27
2022-08-19T03:14:02.354Z,17.63
2022-08-19T03:16:33.462Z,19.40
2022-08-19T03:19:03.573Z,20.58
2022-08-19T03:21:34.114Z,20.23
2022-08-19T03:24:04.977Z,19.27
2022-08-19T03:26:34.563Z,21.13
2022-08-19T03:29:08.567Z,21.92
2022-08-19T03:31:43.282Z,20.23
2022-08-19T03:34:15.340Z,19.00
2022-08-19T03:36:45.145Z,22.58
2022-08-19T03:39:14.722Z,22.20
2022-08-19T03:41:46.270Z,21.88
2022-08-19T03:44:20.564Z,21.02
2022-08-19T03:46:56.170Z,23.90
2022-08-19T03:49:27.219Z,26.38
2022-08-19T03:51:59.099Z,26.33
2022-08-19T03:54:28.806Z,24.73
2022-08-19T03:56:58.807Z,34.65
2022-08-19T03:59:32.715Z,20.35
2022-08-19T04:02:02.963Z,18.35
2022-08-19T04:04:32.613Z,30.90
2022-08-19T04:07:02.293Z,22.52
2022-08-19T04:09:32.068Z,22.45
2022-08-19T04:12:01.876Z,19.95
2022-08-19T04:14:36.055Z,20.77
2022-08-19T04:17:07.104Z,22.67
2022-08-19T04:19:37.573Z,22.20
2022-08-19T04:22:07.720Z,20.75
2022-08-19T04:24:37.901Z,21.25
2022-08-19T04:27:08.329Z,22.10
2022-08-19T04:29:37.841Z,25.95
2022-08-19T04:32:09.120Z,23.42
2022-08-19T04:35:02.731Z,23.17
2022-08-19T04:37:35.142Z,29.45
2022-08-19T04:40:23.778Z,29.05
2022-08-19T04:42:53.606Z,30.02
2022-08-19T04:45:23.329Z,29.85
2022-08-19T04:48:19.563Z,31.98
2022-08-19T04:50:46.177Z,32.13
2022-08-19T04:53:15.766Z,31.02
2022-08-19T04:55:45.440Z,30.42
2022-08-19T04:58:15.059Z,27.77
2022-08-19T05:00:45.998Z,28.27
2022-08-19T05:03:18.155Z,27.85
2022-08-19T05:05:48.137Z,27.15
2022-08-19T05:08:31.270Z,24.55
2022-08-19T05:11:02.019Z,25.02
2022-08-19T05:13:31.645Z,29.85
2022-08-19T05:16:01.671Z,31.50
2022-08-19T05:18:49.646Z,31.50
2022-08-19T05:21:38.180Z,36.30
2022-08-19T05:24:11.243Z,32.70
2022-08-19T05:26:41.331Z,27.95
2022-08-19T05:29:11.078Z,21.40
2022-08-19T05:31:43.794Z,10.30
2022-08-19T05:34:18.229Z,18.60
2022-08-19T05:36:50.008Z,13.25
2022-08-19T05:39:20.939Z,12.00
2022-08-19T05:41:52.751Z,16.42
2022-08-19T05:44:23.868Z,18.70
2022-08-19T05:46:55.237Z,17.15
2022-08-19T05:49:25.426Z,20.90
2022-08-19T05:51:55.134Z,20.98
2022-08-19T05:54:25.491Z,22.30
2022-08-19T05:56:55.459Z,21.90
2022-08-19T05:59:25.574Z,29.65
2022-08-19T06:01:57.986Z,23.45
2022-08-19T06:04:27.787Z,28.63
2022-08-19T06:06:58.548Z,100.18
2022-08-19T06:09:27.886Z,41.67
2022-08-19T06:11:59.629Z,30.13
2022-08-19T06:14:33.468Z,27.92
2022-08-19T06:17:07.147Z,24.05
2022-08-19T06:19:40.756Z,29.48
2022-08-19T06:22:11.867Z,29.63
2022-08-19T06:24:41.642Z,33.05
2022-08-19T06:27:11.253Z,30.30
2022-08-19T06:29:40.740Z,30.30
2022-08-19T06:32:10.344Z,33.97
2022-08-19T06:34:40.098Z,27.02
2022-08-19T06:37:09.822Z,30.00
2022-08-19T06:39:40.961Z,32.90
2022-08-19T06:42:13.691Z,30.73
2022-08-19T06:44:48.820Z,31.15
2022-08-19T06:47:23.689Z,30.55
2022-08-19T06:50:05.650Z,33.05
2022-08-19T06:52:36.488Z,36.08
2022-08-19T06:55:06.983Z,32.80
2022-08-19T06:57:36.882Z,30.67
2022-08-19T07:00:12.305Z,28.92
2022-08-19T07:02:48.033Z,30.35
2022-08-19T07:05:23.482Z,30.10
2022-08-19T07:07:53.095Z,31.38
2022-08-19T07:10:23.584Z,28.35
2022-08-19T07:12:55.965Z,28.20
2022-08-19T07:15:25.868Z,35.42
2022-08-19T07:17:55.421Z,28.40
2022-08-19T07:20:28.566Z,25.10
2022-08-19T07:22:58.448Z,21.80
2022-08-19T07:25:32.077Z,23.05
2022-08-19T07:28:02.891Z,23.77
2022-08-19T07:30:32.679Z,21.05
2022-08-19T07:33:04.265Z,20.30
2022-08-19T07:35:35.125Z,26.52
2022-08-19T07:38:04.871Z,24.02
2022-08-19T07:40:34.544Z,28.52
2022-08-19T07:43:04.116Z,24.77
2022-08-19T07:45:35.487Z,22.00
2022-08-19T07:48:06.250Z,23.30
2022-08-19T07:50:35.947Z,25.58
2022-08-19T07:53:05.551Z,24.83
2022-08-19T07:55:41.363Z,22.15
2022-08-19T07:58:13.747Z,29.85
2022-08-19T08:00:43.987Z,22.00
2022-08-19T08:03:13.833Z,25.48
2022-08-19T08:06:01.493Z,28.63
2022-08-19T08:08:49.032Z,31.08
2022-08-19T08:11:23.947Z,29.27
2022-08-19T08:14:01.060Z,34.60
2022-08-19T08:16:34.867Z,28.20
2022-08-19T08:19:14.813Z,16.90
2022-08-19T08:21:54.431Z,10.57
2022-08-19T08:24:28.676Z,10.27
2022-08-19T08:26:58.625Z,7.38
2022-08-19T08:29:35.086Z,10.68
2022-08-19T08:32:14.843Z,9.82
2022-08-19T08:34:44.976Z,10.80
2022-08-19T08:37:17.060Z,7.25
2022-08-19T08:39:46.783Z,8.35
2022-08-19T08:42:25.996Z,7.20
2022-08-19T08:45:02.438Z,14.02
2022-08-19T08:47:32.932Z,8.98
2022-08-19T08:50:10.103Z,13.52
2022-08-19T08:52:41.027Z,10.38
2022-08-19T08:55:17.718Z,9.30
2022-08-19T08:57:57.241Z,11.80
2022-08-19T09:00:43.121Z,14.30
2022-08-19T09:03:31.505Z,14.68
2022-08-19T09:06:12.099Z,20.40
2022-08-19T09:08:47.855Z,12.30
2022-08-19T09:11:42.555Z,8.70
2022-08-19T09:14:47.375Z,8.10
2022-08-19T09:17:10.423Z,9.52
2022-08-19T09:19:50.272Z,5.72
2022-08-19T09:22:25.490Z,8.88
2022-08-19T09:24:55.905Z,9.70
2022-08-19T09:27:42.462Z,15.65
2022-08-19T09:30:24.234Z,6.55
2022-08-19T09:32:57.025Z,5.40
2022-08-19T09:35:28.392Z,7.05
2022-08-19T09:37:59.947Z,8.52
2022-08-19T09:40:32.604Z,11.25
2022-08-19T09:43:09.856Z,17.45
2022-08-19T09:45:41.444Z,14.25
2022-08-19T09:48:11.764Z,18.88
2022-08-19T09:50:51.473Z,19.38
2022-08-19T09:53:25.617Z,17.30
2022-08-19T09:55:55.981Z,16.30
2022-08-19T09:58:30.349Z,22.20
2022-08-19T10:01:00.700Z,18.38
2022-08-19T10:03:30.727Z,13.27
2022-08-19T10:06:01.208Z,16.08
2022-08-19T10:08:32.825Z,21.00
2022-08-19T10:11:28.600Z,18.10
2022-08-19T10:13:53.580Z,15.88
2022-08-19T10:16:30.155Z,17.38
2022-08-19T10:19:00.113Z,21.60
2022-08-19T10:21:34.758Z,17.02
2022-08-19T10:24:06.263Z,19.73
2022-08-19T10:26:48.709Z,20.60
2022-08-19T10:29:32.853Z,23.45
2022-08-19T10:32:03.745Z,22.40
2022-08-19T10:34:33.516Z,26.05
2022-08-19T10:37:03.069Z,25.80
2022-08-19T10:39:43.365Z,24.05
2022-08-19T10:42:15.262Z,24.23
2022-08-19T10:44:44.934Z,24.10
2022-08-19T10:47:17.523Z,18.52
2022-08-19T10:50:12.672Z,30.02
2022-08-19T10:52:49.823Z,27.60
2022-08-19T10:55:42.026Z,26.63
2022-08-19T10:58:18.241Z,25.00
2022-08-19T11:00:50.751Z,25.02
2022-08-19T11:03:20.966Z,31.88
2022-08-19T11:05:51.279Z,24.17
2022-08-19T11:08:23.012Z,27.20
2022-08-19T11:11:02.961Z,25.92
2022-08-19T11:13:33.070Z,29.55
2022-08-19T11:16:13.190Z,26.60
2022-08-19T11:18:44.450Z,27.77
2022-08-19T11:21:26.230Z,31.95
2022-08-19T11:23:56.633Z,27.42
2022-08-19T11:26:26.508Z,42.78
2022-08-19T11:28:57.306Z,32.25
2022-08-19T11:31:29.413Z,29.52
2022-08-19T11:34:03.975Z,31.73
2022-08-19T11:36:34.943Z,37.03
2022-08-19T11:39:04.542Z,33.10
2022-08-19T11:41:34.140Z,35.17
2022-08-19T11:44:05.318Z,36.38
2022-08-19T11:46:34.938Z,32.88
2022-08-19T11:49:05.276Z,35.38
2022-08-19T11:51:36.137Z,39.75
2022-08-19T11:54:05.826Z,37.45
2022-08-19T11:56:35.568Z,35.67
2022-08-19T11:59:05.266Z,39.05
2022-08-19T12:01:34.797Z,38.10
2022-08-19T12:04:06.600Z,39.33
2022-08-19T12:06:37.000Z,42.20
2022-08-19T12:09:08.106Z,40.88
2022-08-19T12:11:39.144Z,39.40
2022-08-19T12:14:08.844Z,41.13
2022-08-19T12:16:49.067Z,43.72
2022-08-19T12:19:22.815Z,38.03
2022-08-19T12:21:52.810Z,37.42
2022-08-19T12:24:25.565Z,42.47
2022-08-19T12:26:55.813Z,47.88
2022-08-19T12:29:40.097Z,45.88
2022-08-19T12:34:40.327Z,43.22
2022-08-19T12:37:09.887Z,100.18
2022-08-19T12:39:40.611Z,45.72
2022-08-19T12:42:10.787Z,41.22
2022-08-19T12:44:42.722Z,43.78
2022-08-19T12:47:12.800Z,43.70
2022-08-19T12:49:53.573Z,35.63
2022-08-19T12:52:24.572Z,36.55
2022-08-19T12:54:55.187Z,38.33
2022-08-19T12:57:32.875Z,42.65
2022-08-19T13:00:12.236Z,39.95
2022-08-19T13:02:43.018Z,40.63
2022-08-19T13:05:13.377Z,39.58
2022-08-19T13:07:43.397Z,35.22
2022-08-19T13:10:16.955Z,34.50
2022-08-19T13:12:47.475Z,34.15
2022-08-19T13:15:19.425Z,39.85
2022-08-19T13:17:51.703Z,36.60
2022-08-19T13:20:22.084Z,37.33
2022-08-19T13:22:52.095Z,34.70
2022-08-19T13:25:22.258Z,40.25
2022-08-19T13:27:52.012Z,37.35
2022-08-19T13:30:40.411Z,37.53
2022-08-19T13:33:18.850Z,40.97
2022-08-19T13:35:49.677Z,37.50
2022-08-19T13:38:20.219Z,40.60
2022-08-19T13:40:50.208Z,36.78
2022-08-19T13:43:23.360Z,42.20
2022-08-19T13:45:57.995Z,39.60
2022-08-19T13:48:28.975Z,45.72
2022-08-19T13:50:58.525Z,40.20
2022-08-19T13:53:28.286Z,42.78
2022-08-19T13:55:57.952Z,45.22
2022-08-19T13:58:27.571Z,41.08
2022-08-19T14:00:57.367Z,37.45
2022-08-19T14:03:26.815Z,40.80
2022-08-19T14:05:56.504Z,39.63
2022-08-19T14:08:26.339Z,44.30
2022-08-19T14:10:56.032Z,46.85
2022-08-19T14:13:26.185Z,45.25
2022-08-19T14:15:55.763Z,41.55
2022-08-19T14:18:28.596Z,41.22
2022-08-19T14:20:59.115Z,49.72
2022-08-19T14:23:29.083Z,40.85
2022-08-19T14:26:12.310Z,44.40
2022-08-19T14:28:44.703Z,47.03
2022-08-19T14:31:20.739Z,45.55
2022-08-19T14:33:50.498Z,47.10
2022-08-19T14:36:20.575Z,49.95
2022-08-19T14:38:51.081Z,49.55
2022-08-19T14:41:21.773Z,50.38
2022-08-19T14:43:52.129Z,49.53
2022-08-19T14:46:23.469Z,48.97
2022-08-19T14:48:57.649Z,48.13
2022-08-19T14:51:29.766Z,44.30
2022-08-19T14:53:59.369Z,52.92
2022-08-19T14:56:30.038Z,46.05
2022-08-19T14:59:02.842Z,44.58
2022-08-19T15:01:32.555Z,44.22
2022-08-19T15:04:02.252Z,40.58
2022-08-19T15:06:31.973Z,37.70
2022-08-19T15:09:04.382Z,43.92
2022-08-19T15:11:35.071Z,38.28
2022-08-19T15:14:04.731Z,39.92
2022-08-19T15:16:34.438Z,40.38
2022-08-19T15:19:03.975Z,42.88
2022-08-19T15:21:33.777Z,52.65
2022-08-19T15:24:03.960Z,42.00
2022-08-19T15:26:34.760Z,40.15
2022-08-19T15:29:04.896Z,42.70
2022-08-19T15:31:38.746Z,44.83
2022-08-19T15:34:08.738Z,40.45
2022-08-19T15:36:38.736Z,40.78
2022-08-19T15:39:08.767Z,44.83
2022-08-19T15:41:38.628Z,48.65
2022-08-19T15:44:12.168Z,48.50
2022-08-19T15:46:43.503Z,49.70
2022-08-19T15:49:13.798Z,44.70
2022-08-19T15:51:44.810Z,45.63
2022-08-19T15:54:16.264Z,44.97
2022-08-19T15:57:03.843Z,47.30
2022-08-19T15:59:51.240Z,48.22
2022-08-19T16:02:39.397Z,46.92
2022-08-19T16:05:28.034Z,38.05
2022-08-19T16:07:57.724Z,42.78
2022-08-19T16:10:28.025Z,42.08
2022-08-19T16:12:58.758Z,49.28
2022-08-19T16:15:31.845Z,38.65
2022-08-19T16:18:05.700Z,35.17
2022-08-19T16:20:36.359Z,39.83
2022-08-19T16:23:06.526Z,46.42
2022-08-19T16:25:36.071Z,40.70
2022-08-19T16:28:06.250Z,42.47
2022-08-19T16:30:38.546Z,46.55
2022-08-19T16:33:08.321Z,41.00
2022-08-19T16:35:37.924Z,38.15
2022-08-19T16:38:08.280Z,38.80
2022-08-19T16:40:37.895Z,47.92
2022-08-19T16:43:09.760Z,48.05
2022-08-19T16:45:39.385Z,51.45
2022-08-19T16:48:13.621Z,40.83
2022-08-19T16:50:49.670Z,41.35
2022-08-19T16:53:20.156Z,40.28
2022-08-19T16:55:57.258Z,44.78
2022-08-19T16:58:28.372Z,40.35
2022-08-19T17:01:03.787Z,37.08
2022-08-19T17:03:35.771Z,32.78
2022-08-19T17:06:17.690Z,33.88
2022-08-19T17:08:53.560Z,37.35
2022-08-19T17:11:23.545Z,42.90
2022-08-19T17:13:53.317Z,35.60
2022-08-19T17:16:23.589Z,36.35
2022-08-19T17:18:54.303Z,33.10
2022-08-19T17:21:24.606Z,36.65
2022-08-19T17:23:54.345Z,32.20
2022-08-19T17:26:24.109Z,30.35
2022-08-19T17:28:54.457Z,27.98
2022-08-19T17:31:24.954Z,38.35
2022-08-19T17:33:55.190Z,33.25
2022-08-19T17:36:25.516Z,32.95
2022-08-19T17:38:56.858Z,33.45
2022-08-19T17:41:27.033Z,31.40
2022-08-19T17:43:56.878Z,28.48
2022-08-19T17:46:26.447Z,31.73
2022-08-19T17:48:58.837Z,33.70
2022-08-19T17:51:42.945Z,27.60
2022-08-19T17:54:13.811Z,31.88
2022-08-19T17:56:43.419Z,28.85
2022-08-19T17:59:14.096Z,32.60
2022-08-19T18:01:53.704Z,38.90
2022-08-19T18:04:27.037Z,27.13
2022-08-19T18:06:57.017Z,29.40
2022-08-19T18:09:41.203Z,33.47
2022-08-19T18:12:12.004Z,28.77
2022-08-19T18:14:41.869Z,28.80
2022-08-19T18:17:12.567Z,38.70
2022-08-19T18:19:43.588Z,26.10
2022-08-19T18:22:23.836Z,24.75
2022-08-19T18:24:53.517Z,33.42
2022-08-19T18:27:23.713Z,29.98
2022-08-19T18:29:53.320Z,24.88
2022-08-19T18:32:24.757Z,28.25
2022-08-19T18:34:54.619Z,30.38
2022-08-19T18:37:24.484Z,26.77
2022-08-19T18:40:12.625Z,24.08
2022-08-19T18:43:05.996Z,26.00
2022-08-19T18:45:54.192Z,22.58
2022-08-19T18:48:42.170Z,25.27
2022-08-19T18:51:11.812Z,24.45
2022-08-19T18:53:42.366Z,26.65
2022-08-19T18:56:12.372Z,26.52
2022-08-19T18:58:41.990Z,25.67
2022-08-19T19:01:13.757Z,28.75
2022-08-19T19:03:47.009Z,25.80
2022-08-19T19:06:17.207Z,23.17
2022-08-19T19:08:46.859Z,26.15
2022-08-19T19:11:16.423Z,27.60
2022-08-19T19:13:48.287Z,26.98
2022-08-19T19:16:22.429Z,31.50
2022-08-19T19:18:54.043Z,25.35
2022-08-19T19:21:29.057Z,35.58
2022-08-19T19:24:01.776Z,36.05
2022-08-19T19:26:31.706Z,32.60
2022-08-19T19:29:01.335Z,29.60
2022-08-19T19:31:34.456Z,24.95
2022-08-19T19:34:04.159Z,28.77
2022-08-19T19:36:45.000Z,27.25
2022-08-19T19:39:14.621Z,24.83
2022-08-19T19:42:08.627Z,26.00
2022-08-19T19:44:47.178Z,27.85
2022-08-19T19:47:17.113Z,25.83
2022-08-19T19:50:12.843Z,26.23
2022-08-19T19:52:37.323Z,32.03
2022-08-19T19:55:07.273Z,25.50
2022-08-19T19:57:36.798Z,20.73
2022-08-19T20:00:06.867Z,24.90
2022-08-19T20:02:36.372Z,22.75
2022-08-19T20:05:06.010Z,24.25
2022-08-19T20:07:53.498Z,25.83
2022-08-19T20:10:23.115Z,25.30
2022-08-19T20:12:57.389Z,25.23
2022-08-19T20:15:26.989Z,18.90
2022-08-19T20:17:56.947Z,30.90
2022-08-19T20:20:26.881Z,19.98
2022-08-19T20:22:56.865Z,20.42
2022-08-19T20:25:26.520Z,26.02
2022-08-19T20:27:56.429Z,19.65
2022-08-19T20:30:26.214Z,20.70
2022-08-19T20:32:58.203Z,19.67
2022-08-19T20:35:28.150Z,23.98
2022-08-19T20:37:58.541Z,24.10
2022-08-19T20:40:28.660Z,21.90
2022-08-19T20:42:58.828Z,19.85
2022-08-19T20:45:32.908Z,23.08
2022-08-19T20:48:03.914Z,27.08
2022-08-19T20:50:34.269Z,23.85
2022-08-19T20:53:04.173Z,20.77
2022-08-19T20:55:33.764Z,22.67
2022-08-19T20:58:04.129Z,21.58
2022-08-19T21:00:33.775Z,26.80
2022-08-19T21:03:03.361Z,26.83
2022-08-19T21:05:32.869Z,31.67
2022-08-19T21:08:02.569Z,25.77
2022-08-19T21:10:32.230Z,27.83
2022-08-19T21:13:01.846Z,25.92
2022-08-19T21:15:32.209Z,24.52
2022-08-19T21:18:01.914Z,22.20
2022-08-19T21:20:31.439Z,24.30
2022-08-19T21:23:05.851Z,20.23
2022-08-19T21:25:35.879Z,23.92
2022-08-19T21:28:06.874Z,23.95
2022-08-19T21:30:36.560Z,21.95
2022-08-19T21:33:06.638Z,19.73
2022-08-19T21:35:36.897Z,20.55
2022-08-19T21:38:06.515Z,19.13
2022-08-19T21:40:36.566Z,21.05
2022-08-19T21:43:11.016Z,26.08
2022-08-19T21:45:40.784Z,23.65
2022-08-19T21:48:10.364Z,20.88
2022-08-19T21:50:40.125Z,19.05
2022-08-19T21:53:15.680Z,17.60
2022-08-19T21:55:52.799Z,18.65
2022-08-19T21:58:28.775Z,21.10
2022-08-19T22:01:01.344Z,19.60
2022-08-19T22:03:32.803Z,21.45
2022-08-19T22:06:02.938Z,19.20
2022-08-19T22:08:32.934Z,22.38
2022-08-19T22:11:02.757Z,17.85
2022-08-19T22:13:35.926Z,16.67
2022-08-19T22:16:08.982Z,19.25
2022-08-19T22:18:38.853Z,20.73
2022-08-19T22:21:11.936Z,19.35
2022-08-19T22:23:43.247Z,22.63
2022-08-19T22:26:13.343Z,16.17
2022-08-19T22:28:43.980Z,17.15
2022-08-19T22:31:13.518Z,22.00
2022-08-19T22:33:46.982Z,22.40
2022-08-19T22:36:16.542Z,21.23
2022-08-19T22:38:46.118Z,18.83
2022-08-19T22:41:17.053Z,29.27
2022-08-19T22:43:51.272Z,22.98
2022-08-19T22:46:20.895Z,19.35
2022-08-19T22:48:55.951Z,20.40
2022-08-19T22:51:52.198Z,23.52
2022-08-19T22:54:21.831Z,25.05
2022-08-19T22:56:53.198Z,22.10
2022-08-19T22:59:23.440Z,19.48
2022-08-19T23:01:52.967Z,23.05
2022-08-19T23:04:24.188Z,23.00
2022-08-19T23:06:54.335Z,25.83
2022-08-19T23:09:23.828Z,24.85
2022-08-19T23:11:56.898Z,25.70
2022-08-19T23:14:26.361Z,27.30
2022-08-19T23:16:58.936Z,24.17
2022-08-19T23:19:28.864Z,28.25
2022-08-19T23:21:59.036Z,29.33
2022-08-19T23:24:28.620Z,25.85
2022-08-19T23:27:16.731Z,26.20
2022-08-19T23:30:04.110Z,22.85
2022-08-19T23:32:36.570Z,29.92
2022-08-19T23:35:06.091Z,29.50
2022-08-19T23:37:35.617Z,32.40
2022-08-19T23:40:05.681Z,33.63
2022-08-19T23:42:35.702Z,30.95
2022-08-19T23:45:08.556Z,33.45
2022-08-19T23:47:40.716Z,39.83
2022-08-19T23:50:11.217Z,28.38
2022-08-19T23:52:50.929Z,27.73
2022-08-19T23:55:21.116Z,24.48
2022-08-19T23:57:50.741Z,30.52
